Time;durP1;ratioP1;P1;durP2;ratioP2;P2;SDS_P1;SDS_P2;PMS_P1;PMS_P2;Temp;Humidity;BMP_temperature;BMP_pressure;BME280_temperature;BME280_humidity;BME280_pressure;Samples;Min_cycle;Max_cycle;Signal;HPM_P1;HPM_P2
2021/09/14 00:00:31;;;;;;;8.75;5.07;;;;;;;;;;4996057;28;20022;-60
2021/09/14 00:02:57;;;;;;;5.90;4.70;;;;;;;;;;4995823;28;20393;-59
2021/09/14 00:05:25;;;;;;;7.63;5.18;;;;;;;;;;4995897;28;20022;-59
2021/09/14 00:07:50;;;;;;;5.45;4.55;;;;;;;;;;4995508;28;20093;-58
2021/09/14 00:10:18;;;;;;;7.13;5.10;;;;;;;;;;4995847;28;20046;-56
2021/09/14 00:12:46;;;;;;;6.90;5.07;;;;;;;;;;4995772;28;20277;-59
2021/09/14 00:15:11;;;;;;;6.32;5.22;;;;;;;;;;4995977;28;20022;-58
2021/09/14 00:17:37;;;;;;;6.00;4.60;;;;;;;;;;4995890;28;20088;-57
2021/09/14 00:20:03;;;;;;;6.30;4.85;;;;;;;;;;4994275;28;20463;-57
2021/09/14 00:22:28;;;;;;;9.02;5.57;;;;;;;;;;4994499;28;20022;-59
2021/09/14 00:24:53;;;;;;;6.97;5.00;;;;;;;;;;4995392;28;20048;-56
2021/09/14 00:27:22;;;;;;;6.70;5.20;;;;;;;;;;5014343;28;20029;-57
2021/09/14 00:29:47;;;;;;;8.32;5.72;;;;;;;;;;5004705;28;20261;-61
2021/09/14 00:32:15;;;;;;;6.78;5.20;;;;;;;;;;5013961;28;20867;-57
2021/09/14 00:34:40;;;;;;;7.43;5.40;;;;;;;;;;4997835;28;20037;-60
2021/09/14 00:37:06;;;;;;;5.97;4.90;;;;;;;;;;5015792;28;20018;-60
2021/09/14 00:39:37;;;;;;;6.40;4.82;;;;;;;;;;5015829;28;20084;-59
2021/09/14 00:42:02;;;;;;;6.97;5.68;;;;;;;;;;5005270;28;20015;-60
2021/09/14 00:44:28;;;;;;;9.25;5.15;;;;;;;;;;5016442;28;20046;-60
2021/09/14 00:46:59;;;;;;;6.35;4.63;;;;;;;;;;5014599;28;20362;-58
2021/09/14 00:49:24;;;;;;;6.13;4.65;;;;;;;;;;5014607;28;20481;-60
2021/09/14 00:51:52;;;;;;;5.50;4.90;;;;;;;;;;5016179;28;20065;-60
2021/09/14 00:54:21;;;;;;;7.82;5.38;;;;;;;;;;5015232;28;20281;-60
2021/09/14 00:56:55;;;;;;;6.18;4.53;;;;;;;;;;5015100;28;20071;-61
2021/09/14 00:59:23;;;;;;;6.90;5.22;;;;;;;;;;5012182;28;20014;-61
2021/09/14 01:01:48;;;;;;;5.80;4.80;;;;;;;;;;5014471;28;20025;-61
2021/09/14 01:04:13;;;;;;;9.20;5.30;;;;;;;;;;5015982;28;20026;-61
2021/09/14 01:06:48;;;;;;;8.70;4.43;;;;;;;;;;5015813;28;20029;-61
2021/09/14 01:09:19;;;;;;;5.72;4.80;;;;;;;;;;5015537;28;20021;-61
2021/09/14 01:11:53;;;;;;;6.30;4.85;;;;;;;;;;5015663;28;20037;-61
2021/09/14 01:14:18;;;;;;;8.63;5.30;;;;;;;;;;5015188;28;20100;-60
2021/09/14 01:16:44;;;;;;;5.80;5.17;;;;;;;;;;5015441;28;20072;-61
2021/09/14 01:19:10;;;;;;;6.77;4.97;;;;;;;;;;5007333;23;20330;-60
2021/09/14 01:21:43;;;;;;;6.07;4.97;;;;;;;;;;4990599;28;20847;-60
2021/09/14 01:24:08;;;;;;;;;;;;;;;;;;4979438;28;20019;-60
2021/09/14 01:26:34;;;;;;;7.57;5.33;;;;;;;;;;4973921;28;19917;-60
2021/09/14 01:29:09;;;;;;;6.57;4.65;;;;;;;;;;4995759;28;20014;-59
2021/09/14 01:31:34;;;;;;;5.70;4.60;;;;;;;;;;4993387;28;20073;-61
2021/09/14 01:33:59;;;;;;;6.47;5.13;;;;;;;;;;4991830;28;20026;-60
2021/09/14 01:36:43;;;;;;;7.35;5.55;;;;;;;;;;4993068;28;20107;-60
2021/09/14 01:39:08;;;;;;;5.72;4.82;;;;;;;;;;4991844;28;20018;-58
2021/09/14 01:41:35;;;;;;;6.03;4.50;;;;;;;;;;4993005;28;20194;-60
2021/09/14 01:44:18;;;;;;;6.60;5.25;;;;;;;;;;4991730;28;20257;-60
2021/09/14 01:46:45;;;;;;;8.68;4.95;;;;;;;;;;4992210;28;20034;-60
2021/09/14 01:49:10;;;;;;;7.38;5.30;;;;;;;;;;4992947;28;20026;-58
2021/09/14 01:51:35;;;;;;;5.27;4.33;;;;;;;;;;4992980;28;20050;-60
2021/09/14 01:54:00;;;;;;;5.93;4.77;;;;;;;;;;4983203;28;20278;-57
2021/09/14 01:56:25;;;;;;;6.17;5.13;;;;;;;;;;4973450;28;20305;-59
2021/09/14 01:58:52;;;;;;;5.57;4.80;;;;;;;;;;4972193;28;20063;-58
2021/09/14 02:01:28;;;;;;;7.20;4.63;;;;;;;;;;4973517;28;20266;-60
2021/09/14 02:06:36;;;;;;;7.07;4.95;;;;;;;;;;4973590;28;20162;-60
2021/09/14 02:58:38;;;;;;;7.65;4.72;;;;;;;;;;4976378;28;20026;-60
2021/09/14 03:01:07;;;;;;;6.13;4.88;;;;;;;;;;4976499;28;20058;-60
2021/09/14 03:03:33;;;;;;;6.70;5.00;;;;;;;;;;4981955;28;20478;-60
2021/09/14 03:05:58;;;;;;;7.05;4.88;;;;;;;;;;4994531;28;20053;-60
2021/09/14 03:08:23;;;;;;;6.23;4.93;;;;;;;;;;4994631;28;20061;-58
2021/09/14 03:10:49;;;;;;;7.40;4.80;;;;;;;;;;4995765;28;20312;-60
2021/09/14 03:13:14;;;;;;;6.17;4.87;;;;;;;;;;4995613;28;20317;-59
2021/09/14 03:15:45;;;;;;;6.78;4.57;;;;;;;;;;4995744;28;20732;-60
2021/09/14 03:18:10;;;;;;;6.10;5.30;;;;;;;;;;4994369;28;20058;-61
2021/09/14 03:20:36;;;;;;;5.65;5.03;;;;;;;;;;4995363;28;20452;-61
2021/09/14 03:23:04;;;;;;;7.20;5.45;;;;;;;;;;4986414;28;20031;-60
2021/09/14 03:25:29;;;;;;;8.15;5.20;;;;;;;;;;4975486;28;20037;-60
2021/09/14 03:27:54;;;;;;;6.17;5.23;;;;;;;;;;4975609;28;20026;-61
2021/09/14 03:30:20;;;;;;;6.60;5.00;;;;;;;;;;4975172;28;20270;-60
2021/09/14 03:32:45;;;;;;;8.18;4.85;;;;;;;;;;4975863;28;20282;-60
2021/09/14 03:35:10;;;;;;;5.23;4.73;;;;;;;;;;4975811;28;20034;-60
2021/09/14 03:37:35;;;;;;;7.03;5.30;;;;;;;;;;4975887;28;20278;-61
2021/09/14 03:40:00;;;;;;;7.33;5.30;;;;;;;;;;4974347;28;20073;-60
2021/09/14 03:42:26;;;;;;;8.97;5.13;;;;;;;;;;4975623;28;20274;-60
2021/09/14 03:44:51;;;;;;;5.70;4.90;;;;;;;;;;4975590;28;20273;-60
2021/09/14 03:47:19;;;;;;;7.67;4.93;;;;;;;;;;4975913;28;20488;-60
2021/09/14 03:49:50;;;;;;;5.55;4.90;;;;;;;;;;4974085;28;20258;-60
2021/09/14 03:52:15;;;;;;;7.97;4.97;;;;;;;;;;4975494;28;20014;-60
2021/09/14 03:54:40;;;;;;;6.20;4.72;;;;;;;;;;4975362;28;20052;-59
2021/09/14 03:57:05;;;;;;;6.60;5.23;;;;;;;;;;4974104;28;20027;-60
2021/09/14 03:59:31;;;;;;;9.38;4.90;;;;;;;;;;4974152;28;20270;-61
2021/09/14 04:01:59;;;;;;;6.25;4.45;;;;;;;;;;4974061;28;20078;-60
2021/09/14 04:09:48;;;;;;;6.68;4.70;;;;;;;;;;4982594;28;20033;-60
2021/09/14 04:12:14;;;;;;;7.60;5.22;;;;;;;;;;4994521;28;20030;-61
2021/09/14 04:14:42;;;;;;;6.23;5.30;;;;;;;;;;4994634;28;20028;-60
2021/09/14 04:17:10;;;;;;;5.18;4.53;;;;;;;;;;4994498;28;20272;-61
2021/09/14 04:19:38;;;;;;;5.40;4.70;;;;;;;;;;4994269;28;20039;-61
2021/09/14 04:22:03;;;;;;;5.50;4.32;;;;;;;;;;4994209;28;20036;-60
2021/09/14 04:24:41;;;;;;;5.50;4.73;;;;;;;;;;4993131;28;20022;-60
2021/09/14 04:27:08;;;;;;;5.30;4.80;;;;;;;;;;4994188;28;20336;-60
2021/09/14 04:29:36;;;;;;;8.10;5.85;;;;;;;;;;4994257;28;20025;-60
2021/09/14 04:32:02;;;;;;;6.82;5.13;;;;;;;;;;4994127;28;20030;-61
2021/09/14 04:34:30;;;;;;;6.82;5.25;;;;;;;;;;4993994;28;20030;-57
2021/09/14 04:36:56;;;;;;;7.22;5.35;;;;;;;;;;4993326;28;20022;-61
2021/09/14 04:39:27;;;;;;;5.85;5.20;;;;;;;;;;4993990;28;20030;-60
2021/09/14 04:41:52;;;;;;;7.82;4.88;;;;;;;;;;4994034;28;20033;-60
2021/09/14 04:44:18;;;;;;;7.60;5.03;;;;;;;;;;4994089;28;20030;-60
2021/09/14 04:46:49;;;;;;;12.57;5.53;;;;;;;;;;4993683;28;20273;-58
2021/09/14 04:49:15;;;;;;;7.35;5.45;;;;;;;;;;4993809;28;20018;-59
2021/09/14 04:51:40;;;;;;;6.35;4.90;;;;;;;;;;4973551;28;20081;-59
2021/09/14 04:54:05;;;;;;;5.90;5.28;;;;;;;;;;4974576;28;20019;-60
2021/09/14 04:56:30;;;;;;;6.50;5.13;;;;;;;;;;4974340;28;20019;-60
2021/09/14 04:58:56;;;;;;;7.03;5.13;;;;;;;;;;4974266;28;20317;-59
2021/09/14 05:01:21;;;;;;;5.77;5.03;;;;;;;;;;4972913;28;20346;-60
2021/09/14 05:03:47;;;;;;;7.50;4.93;;;;;;;;;;4974184;28;20274;-61
2021/09/14 05:06:13;;;;;;;6.38;5.20;;;;;;;;;;4975037;28;20262;-60
2021/09/14 05:08:38;;;;;;;6.93;5.50;;;;;;;;;;4974682;28;20037;-60
2021/09/14 05:11:04;;;;;;;7.30;5.00;;;;;;;;;;4975430;28;20023;-60
2021/09/14 05:13:29;;;;;;;6.93;4.97;;;;;;;;;;4974184;28;20027;-60
2021/09/14 05:15:55;;;;;;;9.82;5.68;;;;;;;;;;4973924;28;20089;-60
2021/09/14 05:18:20;;;;;;;9.48;5.30;;;;;;;;;;4974871;28;20019;-60
2021/09/14 05:20:46;;;;;;;9.27;5.13;;;;;;;;;;4987315;28;20018;-60
2021/09/14 05:23:16;;;;;;;9.02;5.13;;;;;;;;;;4985261;28;20057;-59
2021/09/14 05:25:43;;;;;;;6.32;5.53;;;;;;;;;;4915758;28;64854;-60
2021/09/14 05:28:16;;;;;;;5.55;4.90;;;;;;;11.85;100.00;94958.25;4931355;27;20818;-60
2021/09/14 05:30:44;;;;;;;6.30;5.25;;;;;;;11.86;100.00;94956.38;4953407;28;20113;-60
2021/09/14 05:33:16;;;;;;;7.60;5.30;;;;;;;11.88;100.00;94954.22;5007793;28;20057;-60
2021/09/14 05:35:49;;;;;;;7.13;5.63;;;;;;;11.94;100.00;94960.34;5028934;28;20481;-60
2021/09/14 05:38:15;;;;;;;;;;;;;;;11.99;100.00;94957.66;5002743;28;20469;-60
2021/09/14 05:40:40;;;;;;;6.80;5.32;;;;;;;12.03;100.00;94966.75;5007747;28;20357;-60
2021/09/14 05:43:06;;;;;;;6.70;5.82;;;;;;;12.05;100.00;94975.34;5003207;28;20026;-59
2021/09/14 05:45:32;;;;;;;6.82;5.47;;;;;;;12.05;100.00;94973.47;5009603;28;20026;-60
2021/09/14 05:47:59;;;;;;;8.07;5.72;;;;;;;12.05;100.00;94967.31;5007067;28;20679;-60
2021/09/14 05:50:24;;;;;;;8.57;5.15;;;;;;;12.08;100.00;94969.41;5007452;28;20472;-60
2021/09/14 05:52:50;;;;;;;9.75;6.05;;;;;;;12.13;100.00;94977.44;5006980;28;20338;-60
2021/09/14 05:55:15;;;;;;;9.20;5.35;;;;;;;12.14;100.00;94971.78;5008447;28;20489;-60
2021/09/14 05:57:40;;;;;;;7.47;6.03;;;;;;;12.14;100.00;94974.47;5003158;28;20022;-60
2021/09/14 06:00:07;;;;;;;7.78;5.47;;;;;;;12.15;100.00;94972.59;5003193;28;20029;-60
2021/09/14 06:02:32;;;;;;;8.80;5.95;;;;;;;12.17;100.00;94982.00;5002130;28;20018;-60
2021/09/14 06:04:58;;;;;;;6.32;5.05;;;;;;;12.19;100.00;94979.03;5009287;28;20033;-60
2021/09/14 06:07:23;;;;;;;7.70;5.38;;;;;;;12.21;100.00;94986.81;5009257;28;20018;-60
2021/09/14 06:09:48;;;;;;;8.35;6.57;;;;;;;12.24;100.00;94984.34;5009166;28;20037;-60
2021/09/14 06:12:23;;;;;;;7.07;5.40;;;;;;;12.33;100.00;94979.22;5008194;28;20401;-61
2021/09/14 06:14:48;;;;;;;8.45;6.20;;;;;;;12.53;100.00;94978.28;5008038;28;20073;-61
2021/09/14 06:17:13;;;;;;;9.68;6.50;;;;;;;12.69;100.00;94967.13;5009031;28;20049;-60
2021/09/14 06:19:39;;;;;;;9.20;6.22;;;;;;;12.81;100.00;94972.16;5009144;28;20026;-61
2021/09/14 06:22:04;;;;;;;8.02;6.40;;;;;;;12.90;100.00;94969.66;5009020;28;20038;-60
2021/09/14 06:24:30;;;;;;;11.57;6.82;;;;;;;13.02;100.00;94967.38;5009022;28;20035;-60
2021/09/14 06:26:56;;;;;;;13.40;7.05;;;;;;;13.23;100.00;94965.34;5007336;28;20181;-60
2021/09/14 06:29:23;;;;;;;11.93;7.53;;;;;;;13.56;100.00;94969.03;5007700;28;20136;-60
2021/09/14 06:31:49;;;;;;;8.93;7.38;;;;;;;13.87;100.00;94962.22;5008809;28;20121;-60
2021/09/14 06:34:14;;;;;;;11.90;8.30;;;;;;;14.22;100.00;94957.47;5007675;28;20133;-60
2021/09/14 06:36:40;;;;;;;11.73;7.88;;;;;;;14.52;100.00;94952.75;5007578;28;20393;-60
2021/09/14 06:39:07;;;;;;;11.00;7.25;;;;;;;14.84;100.00;94952.00;4998671;28;20038;-60
2021/09/14 06:41:33;;;;;;;9.25;6.57;;;;;;;15.06;100.00;94949.47;4995584;28;20034;-60
2021/09/14 06:43:58;;;;;;;11.00;6.88;;;;;;;15.28;100.00;94962.28;4995648;28;20068;-60
2021/09/14 06:46:24;;;;;;;11.35;6.35;;;;;;;15.58;100.00;94967.13;4994357;28;20026;-61
2021/09/14 06:48:50;;;;;;;8.60;6.18;;;;;;;15.88;100.00;94967.69;4995507;28;20027;-61
2021/09/14 06:51:18;;;;;;;9.18;6.60;;;;;;;16.26;100.00;94968.22;4995560;28;20042;-61
2021/09/14 06:53:45;;;;;;;9.95;5.70;;;;;;;16.60;100.00;94967.75;4994609;28;20489;-61
2021/09/14 06:56:10;;;;;;;8.25;5.95;;;;;;;16.85;100.00;94961.00;4995361;28;20038;-61
2021/09/14 06:58:36;;;;;;;9.27;6.15;;;;;;;17.10;100.00;94954.16;4995346;28;20030;-61
2021/09/14 07:01:01;;;;;;;8.38;6.32;;;;;;;17.30;100.00;94948.22;4994147;28;20400;-61
2021/09/14 07:03:27;;;;;;;8.07;5.47;;;;;;;17.58;100.00;94938.03;4994299;28;20026;-61
2021/09/14 07:05:52;;;;;;;8.10;6.00;;;;;;;17.82;100.00;94918.69;4993991;28;20109;-60
2021/09/14 07:08:18;;;;;;;7.18;5.80;;;;;;;18.02;100.00;94883.97;4995291;28;20038;-60
2021/09/14 07:10:43;;;;;;;7.13;5.90;;;;;;;18.18;100.00;94858.81;4995169;28;20026;-61
2021/09/14 07:13:09;;;;;;;8.25;6.07;;;;;;;18.38;100.00;94814.00;4993622;28;20027;-61
2021/09/14 07:15:34;;;;;;;7.95;5.18;;;;;;;18.57;100.00;94761.34;4994387;28;20061;-60
2021/09/14 07:18:00;;;;;;;5.68;5.07;;;;;;;18.75;100.00;94714.84;4995954;28;20145;-59
2021/09/14 07:20:26;;;;;;;5.60;4.93;;;;;;;18.94;100.00;94649.34;5040635;23;20062;-60
2021/09/14 07:22:51;;;;;;;14.65;5.53;;;;;;;19.12;100.00;94609.31;5049058;28;20030;-62
2021/09/14 07:25:16;;;;;;;8.32;5.35;;;;;;;19.36;100.00;94582.28;5034221;28;20388;-59
2021/09/14 07:27:42;;;;;;;7.50;5.22;;;;;;;19.55;100.00;94570.16;5034176;28;20071;-61
2021/09/14 07:30:08;;;;;;;6.88;5.00;;;;;;;19.79;100.00;94586.56;5034123;28;20037;-62
2021/09/14 07:32:35;;;;;;;11.48;5.63;;;;;;;20.09;100.00;94597.31;5034138;28;20072;-59
2021/09/14 07:35:02;;;;;;;5.85;4.78;;;;;;;20.26;100.00;94616.91;5033229;28;20072;-62
2021/09/14 07:37:28;;;;;;;11.23;5.35;;;;;;;20.49;100.00;94649.19;5034339;28;20408;-60
2021/09/14 07:39:53;;;;;;;8.73;5.03;;;;;;;20.78;100.00;94668.03;5033944;28;20037;-60
2021/09/14 07:42:19;;;;;;;6.55;4.72;;;;;;;21.05;100.00;94715.56;5016338;28;20052;-62
2021/09/14 07:44:44;;;;;;;6.90;4.60;;;;;;;21.30;100.00;94751.81;5034292;28;20028;-62
2021/09/14 07:47:09;;;;;;;8.80;4.78;;;;;;;21.52;100.00;94801.56;5033872;28;20075;-60
2021/09/14 07:49:35;;;;;;;12.80;5.05;;;;;;;21.68;100.00;94826.97;5033068;28;20522;-60
2021/09/14 07:52:00;;;;;;;7.35;4.85;;;;;;;21.93;100.00;94858.56;5033619;28;20392;-60
2021/09/14 07:54:26;;;;;;;7.82;5.32;;;;;;;22.18;100.00;94891.28;5033823;28;20025;-60
2021/09/14 07:56:52;;;;;;;7.50;5.10;;;;;;;22.44;100.00;94921.69;4999589;28;20036;-60
2021/09/14 07:59:17;;;;;;;7.55;5.10;;;;;;;22.72;100.00;94964.66;5016141;28;20029;-60
2021/09/14 08:01:42;;;;;;;7.38;4.60;;;;;;;22.89;100.00;95016.28;5033719;28;20044;-60
2021/09/14 08:04:08;;;;;;;7.53;5.22;;;;;;;23.15;100.00;95026.84;5032554;28;20109;-60
2021/09/14 08:06:33;;;;;;;8.63;5.07;;;;;;;23.26;100.00;95051.72;5033813;28;20496;-59
2021/09/14 08:08:59;;;;;;;7.75;4.88;;;;;;;23.30;100.00;95079.94;5033555;28;20033;-59
2021/09/14 08:11:24;;;;;;;6.05;4.68;;;;;;;23.41;100.00;95128.31;5033619;28;20040;-60
2021/09/14 08:13:52;;;;;;;10.90;4.93;;;;;;;23.55;100.00;95171.69;5033572;28;20106;-57
2021/09/14 08:16:20;;;;;;;8.43;5.38;;;;;;;23.72;100.00;95189.81;5015898;28;20458;-60
2021/09/14 08:18:45;;;;;;;6.15;5.07;;;;;;;23.71;100.00;95208.16;5033250;28;20021;-60
2021/09/14 08:21:11;;;;;;;7.95;5.15;;;;;;;23.75;100.00;95193.78;5024824;28;20109;-59
2021/09/14 08:23:36;;;;;;;7.70;4.72;;;;;;;23.97;100.00;95141.28;5013598;28;20026;-60
2021/09/14 08:26:02;;;;;;;7.03;4.72;;;;;;;24.08;100.00;95218.19;5012308;28;20029;-60
2021/09/14 08:28:28;;;;;;;5.53;4.72;;;;;;;24.10;100.00;95224.94;5013540;28;20030;-60
2021/09/14 08:30:54;;;;;;;5.95;4.40;;;;;;;24.01;100.00;95237.94;5012429;28;20026;-60
2021/09/14 08:33:19;;;;;;;5.72;5.05;;;;;;;-144.43;100.00;64487.81;5013627;28;20022;-60
2021/09/14 08:35:45;;;;;;;9.27;4.88;;;;;;;24.03;100.00;95205.56;5012161;28;20026;-60
2021/09/14 08:38:10;;;;;;;8.55;5.05;;;;;;;24.33;100.00;95162.25;5012095;28;20022;-60
2021/09/14 08:40:36;;;;;;;5.53;4.38;;;;;;;24.55;100.00;95147.19;5013624;28;20029;-60
2021/09/14 08:43:02;;;;;;;7.72;5.13;;;;;;;24.78;100.00;95180.22;5013363;28;20032;-61
2021/09/14 08:45:27;;;;;;;7.20;4.70;;;;;;;24.90;100.00;95226.72;5012097;28;20396;-60
2021/09/14 08:47:54;;;;;;;11.15;4.80;;;;;;;25.08;100.00;95191.56;5013076;28;20028;-60
2021/09/14 08:50:23;;;;;;;7.22;5.03;;;;;;;24.92;100.00;95224.41;5011800;28;20042;-59
2021/09/14 08:52:49;;;;;;;6.05;4.90;;;;;;;24.91;100.00;95235.72;5011715;28;20057;-59
2021/09/14 08:55:15;;;;;;;10.18;4.95;;;;;;;24.69;100.00;95257.09;5013148;28;20503;-61
2021/09/14 08:57:48;;;;;;;5.50;5.00;;;;;;;24.67;100.00;95242.16;5013029;28;20026;-60
2021/09/14 09:00:14;;;;;;;7.57;4.43;;;;;;;24.51;100.00;95211.97;5013135;28;20072;-60
2021/09/14 09:02:39;;;;;;;8.65;5.10;;;;;;;24.39;100.00;95201.09;5012815;28;20025;-60
2021/09/14 09:05:05;;;;;;;6.72;4.93;;;;;;;24.44;100.00;95195.38;5012983;28;20036;-60
2021/09/14 09:07:34;;;;;;;11.15;5.25;;;;;;;24.58;100.00;95193.00;5012669;28;20018;-60
2021/09/14 09:10:11;;;;;;;7.68;5.30;;;;;;;24.83;100.00;95208.13;5011796;28;20068;-60
2021/09/14 09:12:42;;;;;;;7.93;5.20;;;;;;;-144.43;100.00;64487.81;5011655;28;20041;-60
2021/09/14 09:15:09;;;;;;;6.57;5.00;;;;;;;-144.43;100.00;64487.81;5011917;28;20029;-60
2021/09/14 09:17:35;;;;;;;7.57;4.63;;;;;;;-144.43;100.00;64487.81;5011451;28;20109;-61
2021/09/14 09:20:06;;;;;;;7.07;5.32;;;;;;;-144.43;100.00;64487.81;5012376;28;20121;-60
2021/09/14 09:22:32;;;;;;;11.45;5.50;;;;;;;-144.43;100.00;64487.81;5012666;28;20058;-61
2021/09/14 09:24:58;;;;;;;8.65;5.53;;;;;;;-144.43;100.00;64487.81;5012744;28;20029;-61
2021/09/14 09:27:25;;;;;;;5.93;5.00;;;;;;;-144.43;100.00;64487.81;5012661;28;20030;-60
2021/09/14 09:29:57;;;;;;;7.30;5.00;;;;;;;-144.43;100.00;64487.81;5012623;28;20128;-61
2021/09/14 09:32:23;;;;;;;5.80;5.10;;;;;;;-144.43;100.00;64487.81;5011263;28;20028;-58
2021/09/14 09:34:56;;;;;;;6.40;4.72;;;;;;;-144.43;100.00;64487.81;5012521;28;20497;-60
2021/09/14 09:37:22;;;;;;;7.95;4.63;;;;;;;-144.43;100.00;64487.81;5011416;28;20056;-56
2021/09/14 09:39:47;;;;;;;9.68;4.97;;;;;;;-144.43;100.00;64487.81;5011131;28;20029;-57
2021/09/14 09:42:14;;;;;;;5.97;5.22;;;;;;;-144.43;100.00;64487.81;5011360;28;20030;-59
2021/09/14 09:44:51;;;;;;;6.55;5.03;;;;;;;-144.43;100.00;64487.81;5012520;28;20022;-60
2021/09/14 09:47:18;;;;;;;5.20;4.70;;;;;;;-144.43;100.00;64487.81;5012436;28;20026;-60
2021/09/14 09:49:44;;;;;;;6.10;4.78;;;;;;;-144.43;100.00;64487.81;5011127;28;20508;-60
2021/09/14 09:52:09;;;;;;;9.52;5.63;;;;;;;-144.43;100.00;64487.81;5011134;28;20483;-61
2021/09/14 09:54:36;;;;;;;8.23;6.00;;;;;;;-144.43;100.00;64487.81;5012473;28;20053;-60
2021/09/14 09:57:02;;;;;;;8.50;6.18;;;;;;;-144.43;100.00;64487.81;5012261;28;20022;-59
2021/09/14 09:59:27;;;;;;;6.28;5.47;;;;;;;-144.43;100.00;64487.81;5012345;28;20033;-60
2021/09/14 10:02:16;;;;;;;5.88;5.25;;;;;;;-144.43;100.00;64487.81;5012304;28;20029;-61
2021/09/14 10:04:48;;;;;;;5.82;5.05;;;;;;;-144.43;100.00;64487.81;5012572;28;20080;-59
2021/09/14 10:07:14;;;;;;;9.60;5.55;;;;;;;-144.43;100.00;64487.81;5011138;28;20137;-60
2021/09/14 10:09:50;;;;;;;8.27;5.20;;;;;;;-144.43;100.00;64487.81;5012115;28;20034;-60
2021/09/14 10:12:30;;;;;;;7.07;4.90;;;;;;;-144.43;100.00;64487.81;5012389;28;20508;-58
2021/09/14 10:14:57;;;;;;;5.53;4.90;;;;;;;-144.43;100.00;64487.81;4998421;28;20021;-59
2021/09/14 10:17:22;;;;;;;5.38;4.78;;;;;;;-144.43;100.00;64487.81;5016070;28;20205;-61
2021/09/14 10:19:48;;;;;;;4.97;4.53;;;;;;;-144.43;100.00;64487.81;5014460;28;20041;-61
2021/09/14 10:22:23;;;;;;;10.95;5.00;;;;;;;-144.43;100.00;64487.81;5015689;28;20129;-61
2021/09/14 10:24:50;;;;;;;6.07;4.80;;;;;;;-144.43;100.00;64487.81;5016174;28;20639;-59
2021/09/14 10:27:16;;;;;;;5.80;5.15;;;;;;;-144.43;100.00;64487.81;4998553;28;20029;-60
2021/09/14 10:29:41;;;;;;;7.93;6.10;;;;;;;-144.43;100.00;64487.81;5014957;28;20026;-60
2021/09/14 10:32:15;;;;;;;5.72;5.15;;;;;;;-144.43;100.00;64487.81;5014721;28;20388;-61
2021/09/14 10:34:56;;;;;;;6.45;5.45;;;;;;;-144.43;100.00;64487.81;5016070;28;20033;-61
2021/09/14 10:37:30;;;;;;;6.63;5.28;;;;;;;-144.43;100.00;64487.81;5020282;28;20125;-54
2021/09/14 10:40:08;;;;;;;6.72;5.68;;;;;;;-144.43;100.00;64487.81;5022922;28;20560;-60
2021/09/14 10:42:38;;;;;;;6.43;5.22;;;;;;;-144.43;100.00;64487.81;5014126;28;20492;-60
2021/09/14 10:45:17;;;;;;;7.65;5.68;;;;;;;-144.43;100.00;64487.81;4995740;28;20025;-61
2021/09/14 10:47:46;;;;;;;9.73;5.55;;;;;;;-144.43;100.00;64487.81;4999072;28;20025;-61
2021/09/14 10:50:26;;;;;;;6.50;5.22;;;;;;;-144.43;100.00;64487.81;5022016;28;20064;-61
2021/09/14 10:53:02;;;;;;;6.85;6.15;;;;;;;-144.43;100.00;64487.81;5018834;28;20029;-62
2021/09/14 10:55:29;;;;;;;7.38;5.20;;;;;;;-144.43;100.00;64487.81;5016129;28;20025;-58
2021/09/14 10:58:00;;;;;;;5.72;5.20;;;;;;;-144.43;100.00;64487.81;5025232;28;20017;-61
2021/09/14 11:00:28;;;;;;;5.65;5.05;;;;;;;-144.43;100.00;64487.81;5007200;28;20034;-59
2021/09/14 11:03:03;;;;;;;5.93;5.32;;;;;;;-144.43;100.00;64487.81;5026480;28;20045;-61
2021/09/14 11:05:36;;;;;;;7.28;5.60;;;;;;;-144.43;100.00;64487.81;5000837;28;20030;-59
2021/09/14 11:08:06;;;;;;;5.35;4.85;;;;;;;-144.43;100.00;64487.81;5003582;28;20049;-62
2021/09/14 11:10:36;;;;;;;5.80;5.22;;;;;;;-144.43;100.00;64487.81;5016747;28;20079;-60
2021/09/14 11:13:03;;;;;;;6.72;5.22;;;;;;;-144.43;100.00;64487.81;5004770;28;20026;-61
2021/09/14 11:15:28;;;;;;;7.30;5.78;;;;;;;-144.43;100.00;64487.81;5005405;28;20030;-62
2021/09/14 11:17:53;;;;;;;8.25;5.38;;;;;;;-144.43;100.00;64487.81;5004385;28;20389;-60
2021/09/14 11:20:21;;;;;;;7.10;5.15;;;;;;;-144.43;100.00;64487.81;5016491;28;20040;-61
2021/09/14 11:22:49;;;;;;;8.80;5.88;;;;;;;-144.43;100.00;64487.81;5016983;28;20044;-60
2021/09/14 11:25:18;;;;;;;6.07;5.47;;;;;;;-144.43;100.00;64487.81;5017563;28;20542;-61
2021/09/14 11:28:07;;;;;;;7.40;5.47;;;;;;;-144.43;100.00;64487.81;5005845;28;20030;-61
2021/09/14 11:30:35;;;;;;;8.07;5.45;;;;;;;-144.43;100.00;64487.81;5022158;28;20554;-60
2021/09/14 11:33:01;;;;;;;9.05;5.65;;;;;;;-144.43;100.00;64487.81;5023201;28;20503;-61
2021/09/14 11:35:35;;;;;;;6.07;5.40;;;;;;;-144.43;100.00;64487.81;5020753;28;20032;-61
2021/09/14 11:38:11;;;;;;;6.20;5.60;;;;;;;-144.43;100.00;64487.81;5035410;28;20068;-60
2021/09/14 11:41:08;;;;;;;7.82;5.68;;;;;;;-144.43;100.00;64487.81;5002353;28;20025;-61
2021/09/14 11:43:35;;;;;;;8.85;5.78;;;;;;;-144.43;100.00;64487.81;4998664;28;20365;-61
2021/09/14 11:46:15;;;;;;;7.47;5.50;;;;;;;-144.43;100.00;64487.81;5037401;28;20029;-61
2021/09/14 11:48:41;;;;;;;8.77;5.30;;;;;;;-144.43;100.00;64487.81;5037246;28;20484;-61
2021/09/14 11:51:09;;;;;;;7.97;5.45;;;;;;;-144.43;100.00;64487.81;5037742;28;20084;-59
2021/09/14 11:54:01;;;;;;;7.25;5.22;;;;;;;-144.43;100.00;64487.81;5019827;28;20025;-61
2021/09/14 11:56:27;;;;;;;6.63;5.30;;;;;;;-144.43;100.00;64487.81;5033708;28;20141;-60
2021/09/14 11:58:52;;;;;;;5.20;4.60;;;;;;;-144.43;100.00;64487.81;5018175;28;20061;-61
2021/09/14 12:01:31;;;;;;;5.50;5.00;;;;;;;-144.43;100.00;64487.81;5034686;28;20021;-58
2021/09/14 12:03:59;;;;;;;7.20;4.80;;;;;;;-144.43;100.00;64487.81;5000907;28;20087;-60
2021/09/14 12:06:32;;;;;;;6.30;4.80;;;;;;;-144.43;100.00;64487.81;5034398;28;20029;-61
2021/09/14 12:09:07;;;;;;;6.38;5.25;;;;;;;-144.43;100.00;64487.81;5035479;28;20040;-60
2021/09/14 12:11:35;;;;;;;5.63;4.78;;;;;;;-144.43;100.00;64487.81;5035384;28;20025;-60
2021/09/14 12:14:13;;;;;;;6.15;4.93;;;;;;;-144.43;100.00;64487.81;5034911;28;20380;-60
2021/09/14 12:16:44;;;;;;;5.28;4.45;;;;;;;-144.43;100.00;64487.81;5034807;28;20025;-61
2021/09/14 12:19:11;;;;;;;5.85;5.20;;;;;;;-144.43;100.00;64487.81;5035071;28;20068;-61
2021/09/14 12:21:40;;;;;;;5.60;5.10;;;;;;;-144.43;100.00;64487.81;5021852;28;20073;-60
2021/09/14 12:24:06;;;;;;;5.97;4.45;;;;;;;-144.43;100.00;64487.81;5015137;28;20052;-61
2021/09/14 12:26:58;;;;;;;5.22;4.70;;;;;;;-144.43;100.00;64487.81;5014574;28;20531;-59
2021/09/14 12:29:23;;;;;;;6.95;4.90;;;;;;;-144.43;100.00;64487.81;5014577;28;20061;-61
2021/09/14 12:31:49;;;;;;;6.38;4.70;;;;;;;-144.43;100.00;64487.81;5014872;28;20496;-61
2021/09/14 12:34:17;;;;;;;5.10;4.43;;;;;;;29.91;92.50;95425.81;5015017;28;20029;-61
2021/09/14 12:36:44;;;;;;;5.93;4.40;;;;;;;29.94;86.93;95438.84;5016134;28;20022;-61
2021/09/14 12:39:13;;;;;;;4.57;4.18;;;;;;;30.03;84.18;95440.13;5014715;28;20439;-61
2021/09/14 12:41:39;;;;;;;7.22;4.75;;;;;;;30.15;80.58;95457.63;5017905;28;20029;-60
2021/09/14 12:44:07;;;;;;;5.53;4.80;;;;;;;30.46;80.67;95453.53;5017101;28;20046;-61
2021/09/14 12:46:58;;;;;;;5.50;4.80;;;;;;;30.34;80.98;95451.88;5016145;28;20033;-60
2021/09/14 12:49:24;;;;;;;5.20;4.75;;;;;;;30.10;88.56;95430.34;5022435;28;20034;-60
2021/09/14 12:51:53;;;;;;;6.07;4.47;;;;;;;30.15;85.38;95444.59;5017376;28;20032;-61
2021/09/14 12:54:21;;;;;;;5.88;4.38;;;;;;;30.14;79.33;95453.28;5015163;28;20076;-61
2021/09/14 12:56:49;;;;;;;7.45;4.90;;;;;;;30.11;82.93;95451.28;5013986;28;20118;-61
2021/09/14 12:59:15;;;;;;;5.63;4.55;;;;;;;29.90;88.34;95427.00;5015011;28;20026;-61
2021/09/14 13:01:40;;;;;;;6.82;4.80;;;;;;;29.80;90.19;95414.66;5014180;28;20036;-61
2021/09/14 13:04:05;;;;;;;5.65;4.28;;;;;;;30.13;92.28;95411.03;5017303;28;20038;-61
2021/09/14 13:06:31;;;;;;;4.50;4.10;;;;;;;30.47;85.06;95425.50;5014624;28;20044;-61
2021/09/14 13:08:56;;;;;;;4.78;4.38;;;;;;;30.83;76.66;95434.84;5016426;28;20026;-61
2021/09/14 13:11:21;;;;;;;5.18;4.60;;;;;;;30.91;81.76;95421.84;5016188;28;20120;-61
2021/09/14 13:16:47;;;;;;;4.50;4.05;;;;;;;31.21;76.90;95440.19;5017314;28;20401;-61
2021/09/14 13:19:13;;;;;;;4.25;3.83;;;;;;;31.21;76.36;95446.50;5020322;28;20076;-61
2021/09/14 13:21:41;;;;;;;5.40;4.10;;;;;;;31.04;76.25;95436.13;5025077;23;20072;-54
2021/09/14 13:24:07;;;;;;;7.72;4.13;;;;;;;30.91;73.51;95437.63;4991948;28;20030;-58